• Join FlightAware (Why Join?)
  • Login
  • US Flag 
12:02AM EDT


 

Airport Tracker/Info


-or-


 

Live Flight TrackerFlight Track Log ✈ VRT51 ✈ 10-Aug-2013 ✈ KBNA - KPVD

Flight Track Log - Related Links

Times and Time Zones

All times are in EDT time to prevent confusion due to time zone crossing. See the VRT51 flight status page for this flight to view local times or setup timezone preferences in your user account.

Time Position Orientation Groundspeed Altitude Reporting Facility
EDT Latitude Longitude Course Direction KTS MPH feet Rate Location/Type
08:14PM 36.1500 -86.6667 68° East 192 221 2,200  Level Nashville TRACON
08:15PM 36.1833 -86.6167 50° Northeast 247 284 4,600 2,400 Climbing Nashville TRACON
08:16PM 36.1833 -86.5167 90° East 303 349 7,000 2,700 Climbing Nashville TRACON
08:17PM 36.2000 -86.4000 80° East 330 380 10,100 3,000 Climbing Nashville TRACON
08:19PM 36.1950 -86.2550 92° East 360 414 14,000 3,000 Climbing Memphis Center
08:20PM 36.2916 -85.8252 68° East  Level FlightAware Approximate
08:20PM 36.1989 -86.1211 88° East 373 429 17,100  Level Memphis Center
08:21PM 36.2336 -85.9856 72° East 392 451 20,100 2,760 Climbing Memphis Center
08:22PM 36.2911 -85.8697 58° Northeast 418 481 23,000 2,700 Climbing Indianapolis Center
08:23PM 36.3497 -85.7286 63° Northeast 420 483 25,900 2,640 Climbing Indianapolis Center
08:24PM 36.4003 -85.5992 64° Northeast 416 479 28,400 1,920 Climbing Indianapolis Center
08:25PM 36.4522 -85.4678 64° Northeast 421 484 29,900 1,320 Climbing Indianapolis Center
08:26PM 36.5061 -85.3303 64° Northeast 438 504 31,200 1,200 Climbing Indianapolis Center
08:27PM 36.5622 -85.1856 64° Northeast 456 525 32,400 1,140 Climbing Indianapolis Center
08:28PM 36.6194 -85.0392 64° Northeast 466 536 33,600 1,200 Climbing Indianapolis Center
08:29PM 36.6775 -84.8897 64° Northeast 475 547 34,900 1,140 Climbing Indianapolis Center
08:30PM 36.7358 -84.7403 64° Northeast 477 549 36,000 540 Climbing Indianapolis Center
08:31PM 36.7936 -84.5856 65° Northeast 491 565 36,000 660 Level Indianapolis Center
08:32PM 36.8544 -84.3936 68° East 499 574 37,400 1,560 Climbing Indianapolis Center
08:33PM 36.9014 -84.2411 69° East 474 545 39,300 1,320 Climbing Indianapolis Center
08:34PM 36.9442 -84.0919 70° East 459 528 40,200 780 Climbing Indianapolis Center
08:35PM 36.9881 -83.9439 70° East 456 525 41,000 360 Climbing Indianapolis Center
08:36PM 37.0358 -83.7911 69° East 472 543 41,000  Level Indianapolis Center
08:37PM 37.0814 -83.6328 70° East 485 558 41,000  Level Indianapolis Center
08:38PM 37.1289 -83.4728 70° East 489 563 41,000  Level Indianapolis Center
08:39PM 37.1753 -83.3114 70° East 489 563 41,000  Level Indianapolis Center
08:40PM 37.2231 -83.1475 70° East 495 570 41,000  Level Indianapolis Center
08:41PM 37.2692 -82.9842 70° East 492 566 41,000  Level Indianapolis Center
08:42PM 37.3158 -82.8194 70° East 496 571 41,000  Level Indianapolis Center
08:43PM 37.3631 -82.6547 70° East 498 573 41,000  Level Indianapolis Center
08:44PM 37.4083 -82.4911 71° East 495 570 41,000  Level Indianapolis Center
08:45PM 37.4608 -82.3017 71° East 491 565 41,000  Level Indianapolis Center
08:46PM 37.5069 -82.1383 70° East 493 567 41,000  Level Indianapolis Center
08:47PM 37.5511 -81.9747 71° East 494 568 41,000  Level Indianapolis Center
08:48PM 37.5958 -81.8125 71° East 491 565 41,000  Level Indianapolis Center
08:49PM 37.6406 -81.6497 71° East 492 566 41,000  Level Indianapolis Center
08:50PM 37.6833 -81.4889 71° East 493 567 41,000  Level Indianapolis Center
08:51PM 37.7256 -81.3294 71° East 493 567 41,000  Level Indianapolis Center
08:52PM 37.7761 -81.1381 71° East 492 566 41,000  Level Indianapolis Center
08:53PM 37.7922 -80.9711 83° East 494 568 41,000  Level Indianapolis Center
08:54PM 37.8017 -80.8028 86° East 493 567 41,000  Level Indianapolis Center
08:55PM 37.8122 -80.6231 86° East 494 568 41,000  Level Indianapolis Center
08:56PM 37.8192 -80.5342 84° East 489 563 41,000  Level Washington Center
08:57PM 37.8300 -80.3667 85° East 489 563 41,000  Level Washington Center
08:58PM 37.8417 -80.1728 86° East 494 568 41,000  Level Washington Center
08:59PM 37.8522 -80.0025 85° East 494 568 41,000  Level Washington Center
09:00PM 37.8647 -79.8294 85° East 494 568 41,000  Level Washington Center
09:01PM 37.8750 -79.6564 86° East 494 568 41,000  Level Washington Center
09:02PM 37.8869 -79.4833 85° East 494 568 41,000  Level Washington Center
09:03PM 37.8942 -79.3258 87° East 494 568 41,000  Level Washington Center
09:04PM 37.9036 -79.1525 86° East 494 568 41,000  Level Washington Center
09:05PM 37.9189 -78.9822 83° East 494 568 41,000  Level Washington Center
09:06PM 37.9403 -78.8119 81° East 499 574 41,000  Level Washington Center
09:07PM 37.9617 -78.6364 81° East 499 574 41,000  Level Washington Center
09:08PM 37.9828 -78.4475 82° East 499 574 41,000  Level Washington Center
09:09PM 38.0036 -78.2772 81° East 499 574 41,000  Level Washington Center
09:10PM 38.0319 -78.1147 77° East 484 557 41,000  Level Washington Center
09:11PM 38.1039 -77.9667 58° Northeast 473 544 41,000  Level Washington Center
09:12PM 38.1775 -77.8211 57° Northeast 473 544 41,000  Level Washington Center
09:13PM 38.2511 -77.6753 57° Northeast 478 550 41,000  Level Washington Center
09:14PM 38.3225 -77.5264 59° Northeast 484 557 41,000  Level Washington Center
09:15PM 38.3892 -77.3931 57° Northeast 492 566 41,000  Level Washington Center
09:16PM 38.4622 -77.2461 58° Northeast 492 566 41,000  Level Washington Center
09:17PM 38.5328 -77.0992 58° Northeast 492 566 41,000  Level Washington Center
09:18PM 38.6075 -76.9467 58° Northeast 492 566 41,000  Level Washington Center
09:19PM 38.6800 -76.7964 58° Northeast 492 566 41,000  Level Washington Center
09:20PM 38.7503 -76.6458 59° Northeast 492 566 41,000  Level Washington Center
09:21PM 38.8161 -76.4894 62° Northeast 492 566 41,000  Level Washington Center
09:22PM 38.8839 -76.3331 61° Northeast 492 566 41,000  Level Washington Center
09:23PM 38.9578 -76.1817 58° Northeast 492 566 41,000  Level Washington Center
09:24PM 39.0667 -76.0433 45° Northeast 492 566 41,000  Level Washington Center
09:25PM 39.1608 -75.9208 45° Northeast 487 560 41,000  Level Washington Center
09:26PM 39.2592 -75.7981 44° Northeast 482 555 41,000  Level Washington Center
09:27PM 39.3550 -75.6722 45° Northeast 487 560 41,000  Level Washington Center
09:28PM 39.4531 -75.5458 45° Northeast 487 560 41,000 -1,080 Level Washington Center
09:30PM 39.6672 -75.2667 45° Northeast 515 593 37,500 -1,800 Descending New York Center
09:31PM 39.7733 -75.1086 49° Northeast 517 595 35,300 -2,160 Descending New York Center
09:32PM 39.8700 -74.9686 48° Northeast 526 605 33,300 -1,200 Descending New York Center
09:33PM 39.9686 -74.8308 47° Northeast 520 598 33,000 -180 Descending New York Center
09:34PM 40.0556 -74.6678 55° Northeast 541 623 33,000  Level New York Center
09:35PM 40.1239 -74.4872 64° Northeast 541 623 33,000  Level New York Center
09:36PM 40.1919 -74.3086 63° Northeast 550 633 33,000 -60 Level New York Center
09:38PM 40.3097 -73.9994 63° Northeast 546 628 32,900 -960 Descending Boston Center
09:39PM 40.3831 -73.8075 63° Northeast 541 623 30,200 -2,820 Descending Boston Center
09:40PM 40.4414 -73.6317 66° East 531 611 27,400 -1,680 Descending Boston Center
09:41PM 40.5036 -73.4664 64° Northeast 513 590 27,000 -240 Descending Boston Center
09:42PM 40.5611 -73.3006 65° Northeast 503 579 27,000  Level Boston Center
09:43PM 40.6247 -73.1292 64° Northeast 503 579 27,000  Level Boston Center
09:44PM 40.6861 -72.9628 64° Northeast 503 579 27,000  Level Boston Center
09:45PM 40.7494 -72.7961 63° Northeast 503 579 27,000  Level Boston Center
09:46PM 40.8122 -72.6211 65° Northeast 508 585 27,000 -300 Level Boston Center
09:47PM 40.9019 -72.4786 50° Northeast 500 575 26,500 -1,980 Descending Boston Center
09:48PM 40.9978 -72.3603 43° Northeast 490 564 23,100 -4,320 Descending Boston Center
09:49PM 41.0769 -72.2694 41° Northeast 449 517 18,800 -5,100 Descending Boston Center
09:50PM 41.1683 -72.1506 44° Northeast 425 489 14,100 -3,840 Descending Boston Center
09:51PM 41.2536 -72.0564 40° Northeast 380 437 11,100 -2,220 Descending Boston Center
09:52PM 41.3261 -71.9811 38° Northeast 320 368 9,700 -1,800 Descending Boston Center
09:53PM 41.3883 -71.9144 39° Northeast 301 346 7,800 -2,040 Descending Boston Center
09:54PM 41.4528 -71.8503 37° Northeast 288 331 5,900 -1,380 Descending Boston Center
09:55PM 41.5169 -71.7886 36° Northeast 285 328 5,000 -480 Descending Boston Center
09:56PM 41.5769 -71.7242 39° Northeast 279 321 5,000  Level Boston Center
09:57PM 41.6392 -71.6567 39° Northeast 284 327 5,000 -300 Level Boston Center
09:58PM 41.7053 -71.5836 40° Northeast 288 331 4,400 -960 Descending Boston Center
10:00PM 41.8042 -71.4625 42° Northeast 200 230 2,200 -900 Descending Boston Center
10:01PM 41.7808 -71.4156 124° Southeast 143 165 1,800 -780 Descending Boston Center
10:02PM 41.7456 -71.4106 174° South 137 158 600 -1,080 Descending Boston Center